Harpursville, New York
Current Conditions -  °F | °C
As of 10:53 AM on Friday 19 Dec 2014 (Local Time) from KBGM Reporting Station
Light Snow Light Snow  
Wind Chill: 13°   Ceiling: 800
Heat Index: 22°   Visibility: 3mi
Dew Point: 20°   Wind: 7mph
Humidity: 92%   Direction: 330°NNW
Pressure: 30.06"   Gusts: NA
Location:  42.18°N, 75.62°W
Report Text: KBGM 191553Z 33006KT 3SM -SN BR OVC008 M06/M07 A3006 RMK AO2 SFC VIS 4 CIG 006V011 SLP202 P0000 T10561067
Loading
Personal Weather Stations






























Interactive Weather Map New forecast layout! Learn more

10-Day Weather Forecast

Advertisements
Track Severe Weather on mobile